Time;durP1;ratioP1;P1;durP2;ratioP2;P2;SDS_P1;SDS_P2;PMS_P1;PMS_P2;Temp;Humidity;BMP_temperature;BMP_pressure;BME280_temperature;BME280_humidity;BME280_pressure;Samples;Min_cycle;Max_cycle;Signal;HPM_P1;HPM_P2
2023/02/25 00:00:09;;;;;;;7.70;0.47;;;;;;;-146.25;100.00;52455.38;2088414;28;36593;-76
2023/02/25 00:01:14;;;;;;;7.40;0.60;;;;;;;-146.25;100.00;52469.56;2087616;28;20049;-76
2023/02/25 00:02:16;;;;;;;6.70;0.70;;;;;;;-146.25;100.00;52465.53;2088462;28;34240;-76
2023/02/25 00:03:18;;;;;;;10.57;0.73;;;;;;;-146.25;100.00;52510.13;2087675;28;33277;-77
2023/02/25 00:04:26;;;;;;;7.07;0.47;;;;;;;-146.25;100.00;52473.63;2088478;28;31717;-77
2023/02/25 00:05:29;;;;;;;9.45;0.50;;;;;;;-146.25;100.00;52483.78;2087752;28;36099;-77
2023/02/25 00:06:32;;;;;;;5.82;0.45;;;;;;;-146.25;100.00;52473.63;2088420;28;30923;-76
2023/02/25 00:07:34;;;;;;;7.55;0.70;;;;;;;-146.25;100.00;52465.53;2088108;28;31135;-78
2023/02/25 00:08:35;;;;;;;7.90;0.57;;;;;;;-146.25;100.00;52481.75;2088183;28;37105;-77
2023/02/25 00:09:37;;;;;;;11.02;0.70;;;;;;;-146.25;100.00;52461.47;2087972;28;33139;-77
2023/02/25 00:10:39;;;;;;;6.18;0.32;;;;;;;-146.25;100.00;52483.78;2088560;28;35465;-77
2023/02/25 00:11:41;;;;;;;10.00;0.60;;;;;;;-146.25;100.00;52445.25;2087825;28;35663;-77
2023/02/25 00:12:42;;;;;;;8.65;0.70;;;;;;;-146.25;100.00;52473.63;2088234;28;36387;-77
2023/02/25 00:13:45;;;;;;;12.52;0.60;;;;;;;-146.25;100.00;52475.66;2087806;28;36366;-77
2023/02/25 00:14:47;;;;;;;7.07;0.60;;;;;;;-146.25;100.00;52479.72;2087496;28;40134;-77
2023/02/25 00:15:49;;;;;;;7.90;0.50;;;;;;;-146.25;100.00;52520.28;2087488;28;32041;-77
2023/02/25 00:16:54;;;;;;;9.23;0.43;;;;;;;-146.25;100.00;52479.72;2088221;28;36018;-77
2023/02/25 00:17:57;;;;;;;7.65;0.70;;;;;;;-146.25;100.00;52481.75;2087278;28;38517;-77
2023/02/25 00:18:59;;;;;;;8.38;0.30;;;;;;;-146.25;100.00;52469.56;2088492;28;20037;-77
2023/02/25 00:20:03;;;;;;;6.00;0.40;;;;;;;-146.25;100.00;52502.03;2087901;28;20033;-76
2023/02/25 00:21:08;;;;;;;6.28;0.50;;;;;;;-146.25;100.00;52514.19;2087807;28;35086;-76
2023/02/25 00:22:10;;;;;;;7.60;0.40;;;;;;;-146.25;100.00;52493.91;2088660;28;20038;-75
2023/02/25 00:23:12;;;;;;;7.07;0.30;;;;;;;-146.25;100.00;52461.47;2088714;28;20046;-76
2023/02/25 00:24:16;;;;;;;6.25;0.73;;;;;;;-146.25;100.00;52457.41;2087910;28;36795;-77
2023/02/25 00:25:20;;;;;;;4.57;0.30;;;;;;;-146.25;100.00;52461.47;2087983;28;33084;-76
2023/02/25 00:26:23;;;;;;;5.00;0.30;;;;;;;-146.25;100.00;52473.63;2088367;28;20044;-76
2023/02/25 00:27:27;;;;;;;9.05;0.82;;;;;;;-146.25;100.00;52471.59;2088200;28;35859;-76
2023/02/25 00:28:29;;;;;;;12.20;0.77;;;;;;;-146.25;100.00;52471.59;2079416;28;21702;-76
2023/02/25 00:29:30;;;;;;;9.20;0.45;;;;;;;-146.25;100.00;52510.13;2079337;28;28041;-76
2023/02/25 00:30:34;;;;;;;10.68;0.85;;;;;;;-146.25;100.00;52477.69;2088058;28;29979;-76
2023/02/25 00:31:35;;;;;;;9.10;0.50;;;;;;;-146.25;100.00;52453.34;2089030;28;20042;-76
2023/02/25 00:32:38;;;;;;;11.95;0.60;;;;;;;-146.25;100.00;52459.44;2087443;28;35871;-76
2023/02/25 00:33:41;;;;;;;5.13;0.60;;;;;;;-146.25;100.00;52489.84;2088592;28;24190;-76
2023/02/25 00:34:43;;;;;;;6.65;0.40;;;;;;;-146.25;100.00;52467.56;2088266;28;22595;-76
2023/02/25 00:35:45;;;;;;;8.20;0.60;;;;;;;-146.25;100.00;52485.81;2089079;28;20052;-76
2023/02/25 00:36:47;;;;;;;7.90;0.43;;;;;;;-146.25;100.00;52485.81;2086951;28;31767;-77
2023/02/25 00:37:53;;;;;;;8.90;0.50;;;;;;;-146.25;100.00;52493.91;2088432;28;20065;-77
2023/02/25 00:39:02;;;;;;;8.55;0.40;;;;;;;-146.25;100.00;52487.81;2087431;28;31982;-76
2023/02/25 00:40:13;;;;;;;7.40;0.75;;;;;;;-146.25;100.00;52467.56;2088587;28;20040;-76
2023/02/25 00:41:18;;;;;;;9.82;0.60;;;;;;;-146.25;100.00;52477.69;2088230;28;20080;-76
2023/02/25 00:42:23;;;;;;;10.30;0.70;;;;;;;-146.25;100.00;52487.81;2088214;28;27104;-76
2023/02/25 00:43:24;;;;;;;9.55;0.50;;;;;;;-146.25;100.00;52451.31;2088553;28;20778;-77
2023/02/25 00:44:26;;;;;;;8.15;0.60;;;;;;;-146.25;100.00;52463.50;2079113;28;36708;-77
2023/02/25 00:45:28;;;;;;;11.40;0.82;;;;;;;-146.25;100.00;52451.31;2080157;28;20053;-76
2023/02/25 00:46:32;;;;;;;6.57;0.60;;;;;;;-146.25;100.00;52481.75;2088356;28;20084;-76
2023/02/25 00:47:34;;;;;;;9.00;0.70;;;;;;;-146.25;100.00;52457.41;2088752;28;20037;-76
2023/02/25 00:48:39;;;;;;;9.75;0.63;;;;;;;-146.25;100.00;52479.72;2079525;28;20046;-76
2023/02/25 00:49:41;;;;;;;13.48;0.65;;;;;;;-146.25;100.00;52455.38;2079764;28;26898;-76
2023/02/25 00:50:43;;;;;;;11.43;0.50;;;;;;;-146.25;100.00;52477.69;2079825;28;20269;-77
2023/02/25 00:51:45;;;;;;;11.20;0.38;;;;;;;-146.25;100.00;52514.19;2079599;28;27995;-77
2023/02/25 00:52:46;;;;;;;9.00;0.68;;;;;;;-146.25;100.00;52489.84;2079057;28;30420;-76
2023/02/25 00:53:49;;;;;;;10.45;0.73;;;;;;;-146.25;100.00;52465.53;2080147;28;20152;-76
2023/02/25 00:54:51;;;;;;;6.45;0.73;;;;;;;-146.25;100.00;52445.25;2088298;28;22136;-77
2023/02/25 00:56:01;;;;;;;8.95;0.63;;;;;;;-146.25;100.00;52479.72;2088456;28;24880;-76
2023/02/25 00:57:03;;;;;;;11.27;0.47;;;;;;;-146.25;100.00;52481.75;2087719;28;29863;-76
2023/02/25 00:58:04;;;;;;;7.10;0.77;;;;;;;-146.25;100.00;52469.56;2087649;28;26336;-76
2023/02/25 00:59:06;;;;;;;6.10;0.75;;;;;;;-146.25;100.00;52473.63;2087649;28;27027;-76
2023/02/25 01:00:14;;;;;;;11.48;0.75;;;;;;;-146.25;100.00;52516.22;2087789;28;30940;-75
2023/02/25 01:01:32;;;;;;;6.88;0.50;;;;;;;-146.25;100.00;52495.94;2087615;28;27307;-75
2023/02/25 01:02:34;;;;;;;9.07;0.55;;;;;;;-146.25;100.00;52495.94;2088693;28;20046;-76
2023/02/25 01:03:35;;;;;;;5.53;0.70;;;;;;;-146.25;100.00;52506.06;2088003;28;31319;-76
2023/02/25 01:04:40;;;;;;;8.60;0.57;;;;;;;-146.25;100.00;52453.34;2088445;28;28528;-76
2023/02/25 01:05:41;;;;;;;10.27;0.52;;;;;;;-146.25;100.00;52481.75;2078604;28;36676;-76
2023/02/25 01:06:43;;;;;;;12.65;1.05;;;;;;;-146.25;100.00;52475.66;2079631;28;28698;-76
2023/02/25 01:07:47;;;;;;;7.97;0.60;;;;;;;-146.25;100.00;52493.91;2088616;28;20088;-76
2023/02/25 01:08:49;;;;;;;10.40;0.57;;;;;;;-146.25;100.00;52504.03;2087946;28;39807;-76
2023/02/25 01:09:55;;;;;;;13.13;1.10;;;;;;;-146.25;100.00;52455.38;2088321;28;22210;-76
2023/02/25 01:10:56;;;;;;;10.25;0.65;;;;;;;-146.25;100.00;52481.75;2088053;28;28290;-76
2023/02/25 01:11:59;;;;;;;9.23;0.60;;;;;;;-146.25;100.00;52489.84;2079363;28;20029;-76
2023/02/25 01:13:03;;;;;;;10.30;0.60;;;;;;;-146.25;100.00;52471.59;2078904;28;20181;-76
2023/02/25 01:14:11;;;;;;;7.75;0.50;;;;;;;-146.25;100.00;52495.94;2079188;28;20868;-77
2023/02/25 01:15:13;;;;;;;6.35;0.35;;;;;;;-146.25;100.00;52483.78;2080787;28;20081;-74
2023/02/25 01:16:21;;;;;;;7.07;0.60;;;;;;;-146.25;100.00;52475.66;2087811;28;20056;-76
2023/02/25 01:17:23;;;;;;;8.80;0.45;;;;;;;-146.25;100.00;52473.63;2087693;28;32788;-76
2023/02/25 01:18:25;;;;;;;7.82;0.82;;;;;;;-146.25;100.00;52485.81;2079509;28;20100;-75
2023/02/25 01:19:28;;;;;;;12.38;0.65;;;;;;;-146.25;100.00;52502.03;2079581;28;20045;-76
2023/02/25 01:20:30;;;;;;;9.57;0.55;;;;;;;-146.25;100.00;52455.38;2087938;28;34404;-75
2023/02/25 01:21:39;;;;;;;10.32;0.32;;;;;;;-146.25;100.00;52475.66;2088668;28;32586;-75
2023/02/25 01:22:40;;;;;;;12.07;0.70;;;;;;;-146.25;100.00;52457.41;2079444;28;20046;-76
2023/02/25 01:23:48;;;;;;;6.28;0.50;;;;;;;-146.25;100.00;52463.50;2079356;28;26861;-76
2023/02/25 01:24:49;;;;;;;9.55;0.77;;;;;;;-146.25;100.00;52487.81;2088009;28;20924;-76
2023/02/25 01:25:51;;;;;;;8.43;0.45;;;;;;;-146.25;100.00;52506.06;2087709;28;28494;-75
2023/02/25 01:26:58;;;;;;;11.43;0.82;;;;;;;-146.25;100.00;52502.03;2079216;28;20104;-76
2023/02/25 01:28:00;;;;;;;9.38;0.80;;;;;;;-146.25;100.00;52465.53;2079984;28;29562;-76
2023/02/25 01:29:07;;;;;;;13.07;0.77;;;;;;;-146.25;100.00;52453.34;2088007;28;22933;-76
2023/02/25 01:30:10;;;;;;;15.50;0.82;;;;;;;-146.25;100.00;52475.66;2079342;28;21767;-77
2023/02/25 01:31:18;;;;;;;13.27;0.52;;;;;;;-146.25;100.00;52422.94;2079028;28;30311;-76
2023/02/25 01:32:19;;;;;;;6.53;0.50;;;;;;;-146.25;100.00;52473.63;2079714;28;21004;-76
2023/02/25 01:33:24;;;;;;;10.13;0.52;;;;;;;-146.25;100.00;52475.66;2071752;28;20046;-76
2023/02/25 01:34:29;;;;;;;9.45;0.80;;;;;;;-146.25;100.00;52463.50;2079357;28;21841;-76
2023/02/25 01:35:31;;;;;;;12.85;1.08;;;;;;;-146.25;100.00;52495.94;2079100;28;25667;-76
2023/02/25 01:36:33;;;;;;;5.95;0.57;;;;;;;-146.25;100.00;52493.91;2079635;28;20159;-76
2023/02/25 01:37:35;;;;;;;18.30;2.13;;;;;;;-146.25;100.00;52473.63;2087365;28;33194;-76
2023/02/25 01:38:40;;;;;;;7.82;0.45;;;;;;;-146.25;100.00;52487.81;2079248;28;20038;-76
2023/02/25 01:39:41;;;;;;;10.95;0.73;;;;;;;-146.25;100.00;52502.03;2080383;28;20097;-76
2023/02/25 01:40:46;;;;;;;11.02;0.88;;;;;;;-146.25;100.00;52451.31;2079121;28;20969;-77
2023/02/25 01:41:52;;;;;;;14.68;0.70;;;;;;;-146.25;100.00;52506.06;2079204;28;30061;-74
2023/02/25 01:42:54;;;;;;;7.57;0.40;;;;;;;-146.25;100.00;52461.47;2078305;28;38910;-76
2023/02/25 01:44:21;;;;;;;7.97;0.57;;;;;;;-146.25;100.00;52463.50;2071051;28;31780;-76
2023/02/25 01:45:29;;;;;;;9.45;0.63;;;;;;;-146.25;100.00;52463.50;2074596;28;20086;-76
2023/02/25 01:46:33;;;;;;;10.95;0.70;;;;;;;-146.25;100.00;52491.88;2082804;28;20036;-76
2023/02/25 01:47:38;;;;;;;10.57;0.70;;;;;;;-146.25;100.00;52479.72;2078532;28;37492;-76
2023/02/25 01:48:40;;;;;;;9.63;1.02;;;;;;;-146.25;100.00;52526.34;2071559;28;23822;-76
2023/02/25 01:49:45;;;;;;;6.57;0.60;;;;;;;-146.25;100.00;52497.97;2079199;28;20108;-76
2023/02/25 01:50:57;;;;;;;10.02;0.60;;;;;;;-146.25;100.00;52481.75;2088018;28;34961;-77
2023/02/25 01:52:14;;;;;;;11.40;0.70;;;;;;;-146.25;100.00;52491.88;2078709;28;29463;-76
2023/02/25 01:53:23;;;;;;;7.88;0.82;;;;;;;-146.25;100.00;52477.69;2071151;28;20138;-76
2023/02/25 01:54:26;;;;;;;9.65;0.50;;;;;;;-146.25;100.00;52485.81;2075150;28;25584;-76
2023/02/25 01:55:29;;;;;;;12.60;0.70;;;;;;;-146.25;100.00;52489.84;2070922;28;20456;-77
2023/02/25 01:56:33;;;;;;;8.25;0.50;;;;;;;-146.25;100.00;52463.50;2071979;28;20081;-76
2023/02/25 01:57:36;;;;;;;7.70;0.40;;;;;;;-146.25;100.00;52483.78;2071139;28;20031;-76
2023/02/25 01:58:38;;;;;;;10.13;0.90;;;;;;;-146.25;100.00;52457.41;2072030;28;20085;-76
2023/02/25 01:59:43;;;;;;;11.85;0.82;;;;;;;-146.25;100.00;52459.44;2087308;28;20105;-76
2023/02/25 02:00:45;;;;;;;9.95;0.70;;;;;;;-146.25;100.00;52500.00;2079377;28;20900;-76
2023/02/25 02:01:48;;;;;;;10.18;0.90;;;;;;;-146.25;100.00;52435.09;2078817;28;20084;-76
2023/02/25 02:02:53;;;;;;;11.15;0.90;;;;;;;-146.25;100.00;52451.31;2088414;28;29056;-76
2023/02/25 02:03:55;;;;;;;9.05;0.60;;;;;;;-146.25;100.00;52455.38;2088043;28;25426;-76
2023/02/25 02:04:57;;;;;;;7.95;0.52;;;;;;;-146.25;100.00;52495.94;2087158;28;34698;-76
2023/02/25 02:06:14;;;;;;;16.85;1.17;;;;;;;-146.25;100.00;52497.97;2070548;28;20977;-76
2023/02/25 02:07:18;;;;;;;11.10;0.60;;;;;;;-146.25;100.00;52500.00;2075852;28;26660;-76
2023/02/25 02:08:22;;;;;;;12.60;0.60;;;;;;;-146.25;100.00;52485.81;2086905;28;26952;-76
2023/02/25 02:09:27;;;;;;;8.13;0.70;;;;;;;-146.25;100.00;52508.09;2078951;28;20038;-76
2023/02/25 02:10:28;;;;;;;15.18;0.98;;;;;;;-146.25;100.00;52485.81;2070990;28;20042;-76
2023/02/25 02:11:30;;;;;;;11.82;0.98;;;;;;;-146.25;100.00;52485.81;2071189;28;26702;-76
2023/02/25 02:12:40;;;;;;;10.15;0.85;;;;;;;-146.25;100.00;52530.41;2079783;28;20076;-76
2023/02/25 02:13:48;;;;;;;9.50;0.98;;;;;;;-146.25;100.00;52508.09;2087203;28;30078;-76
2023/02/25 02:14:51;;;;;;;8.48;0.90;;;;;;;-146.25;100.00;52512.16;2070414;28;32255;-76
2023/02/25 02:16:28;;;;;;;8.77;0.70;;;;;;;-146.25;100.00;52485.81;2072083;28;37553;-76
2023/02/25 02:17:48;;;;;;;10.95;0.80;;;;;;;-146.25;100.00;52487.81;2087529;28;32946;-76
2023/02/25 02:18:57;;;;;;;12.82;0.70;;;;;;;-146.25;100.00;52461.47;2086560;28;33511;-76
2023/02/25 02:20:12;;;;;;;;;;;;;;;-146.25;100.00;52485.81;2088549;28;21065;-76
2023/02/25 02:21:39;;;;;;;6.32;0.40;;;;;;;-146.25;100.00;52451.31;2087372;28;29044;-76
2023/02/25 02:22:58;;;;;;;13.50;0.60;;;;;;;-146.25;100.00;52457.41;2088121;28;20096;-76
2023/02/25 02:24:21;;;;;;;9.75;1.05;;;;;;;-146.25;100.00;52491.88;2088095;28;33120;-76
2023/02/25 02:26:29;;;;;;;9.73;0.77;;;;;;;-146.25;100.00;52465.53;2088025;28;20049;-76
2023/02/25 02:28:25;;;;;;;10.73;0.90;;;;;;;-146.25;100.00;52461.47;2072009;28;25672;-76
2023/02/25 02:30:04;;;;;;;10.27;0.50;;;;;;;-146.25;100.00;52506.06;2079491;28;30183;-76
2023/02/25 02:31:23;;;;;;;9.07;0.57;;;;;;;-146.25;100.00;52463.50;2089102;28;29328;-75
2023/02/25 02:32:52;;;;;;;10.82;0.80;;;;;;;-146.25;100.00;52441.19;2080785;28;20969;-76
2023/02/25 02:34:38;;;;;;;15.93;0.75;;;;;;;-146.25;100.00;52457.41;2083869;28;28981;-75
2023/02/25 02:36:15;;;;;;;11.60;0.73;;;;;;;-146.25;100.00;52437.13;2074413;28;32693;-76
2023/02/25 02:37:42;;;;;;;9.00;0.60;;;;;;;-146.25;100.00;52461.47;2076950;28;20164;-76
2023/02/25 02:39:16;;;;;;;11.60;0.60;;;;;;;-146.25;100.00;52510.13;2075823;28;31070;-76
2023/02/25 02:41:04;;;;;;;11.35;0.50;;;;;;;-146.25;100.00;52463.50;2077948;28;20038;-75
2023/02/25 02:42:20;;;;;;;9.10;0.65;;;;;;;-146.25;100.00;52469.56;2068243;28;20043;-75
2023/02/25 02:44:01;;;;;;;9.52;1.00;;;;;;;-146.25;100.00;52467.56;2082434;28;20046;-76
2023/02/25 02:45:33;;;;;;;13.73;1.77;;;;;;;-146.25;100.00;52479.72;2088882;28;25792;-75
2023/02/25 02:46:48;;;;;;;11.20;0.77;;;;;;;-146.25;100.00;52504.03;2080684;28;20050;-76
2023/02/25 02:48:00;;;;;;;13.80;1.23;;;;;;;-146.25;100.00;52447.28;2081768;28;30895;-75
2023/02/25 02:49:17;;;;;;;7.53;0.57;;;;;;;-146.25;100.00;52495.94;2080033;28;33228;-75
2023/02/25 02:50:44;;;;;;;8.70;0.63;;;;;;;-146.25;100.00;52512.16;2083632;28;20045;-76
2023/02/25 02:51:56;;;;;;;12.10;0.60;;;;;;;-146.25;100.00;52481.75;2088030;28;29868;-77
2023/02/25 02:53:07;;;;;;;11.73;0.70;;;;;;;-146.25;100.00;52487.81;2072335;28;20903;-77
2023/02/25 02:54:13;;;;;;;8.02;0.63;;;;;;;-146.25;100.00;52473.63;2068320;28;20093;-76
2023/02/25 02:55:22;;;;;;;8.82;0.50;;;;;;;-146.25;100.00;52477.69;2072626;28;20074;-76
2023/02/25 02:56:29;;;;;;;13.13;1.05;;;;;;;-146.25;100.00;52487.81;2065711;28;20888;-76
2023/02/25 02:57:37;;;;;;;11.60;0.88;;;;;;;-146.25;100.00;52487.81;2074179;28;20096;-76
2023/02/25 02:58:49;;;;;;;10.75;0.70;;;;;;;-146.25;100.00;52477.69;2080431;28;20052;-76
2023/02/25 02:59:59;;;;;;;16.25;0.80;;;;;;;-146.25;100.00;52487.81;2072692;28;20159;-77
2023/02/25 03:01:12;;;;;;;8.10;0.70;;;;;;;-146.25;100.00;52437.13;2074816;28;22861;-77
2023/02/25 03:02:25;;;;;;;7.13;0.57;;;;;;;-146.25;100.00;52471.59;2088671;28;20037;-77
2023/02/25 03:03:37;;;;;;;7.35;0.40;;;;;;;-146.25;100.00;52453.34;2079982;28;21623;-77
2023/02/25 03:04:45;;;;;;;14.18;0.70;;;;;;;-146.25;100.00;52461.47;2081238;28;23342;-77
2023/02/25 03:05:52;;;;;;;12.25;0.50;;;;;;;-146.25;100.00;52502.03;2080304;28;20900;-77
2023/02/25 03:07:07;;;;;;;7.93;0.70;;;;;;;-146.25;100.00;52489.84;2072535;28;20165;-76
2023/02/25 03:08:14;;;;;;;7.13;0.55;;;;;;;-146.25;100.00;52489.84;2074290;28;20474;-77
2023/02/25 03:09:29;;;;;;;7.00;0.57;;;;;;;-146.25;100.00;52445.25;2072966;28;20046;-76
2023/02/25 03:10:33;;;;;;;5.05;0.40;;;;;;;-146.25;100.00;52477.69;2073998;28;20177;-76
2023/02/25 03:11:35;;;;;;;6.50;0.30;;;;;;;-146.25;100.00;52526.34;2072683;28;20047;-77
2023/02/25 03:12:37;;;;;;;8.93;0.70;;;;;;;-146.25;100.00;52502.03;2071918;28;20080;-77
2023/02/25 03:13:40;;;;;;;6.47;0.30;;;;;;;-146.25;100.00;52453.34;2080601;28;20796;-76
2023/02/25 03:14:42;;;;;;;6.20;0.50;;;;;;;-146.25;100.00;52457.41;2079613;28;20974;-77
2023/02/25 03:15:51;;;;;;;9.40;0.60;;;;;;;-146.25;100.00;52449.31;2072879;28;20896;-77
2023/02/25 03:17:16;;;;;;;9.50;0.50;;;;;;;-146.25;100.00;52491.88;2064214;28;21388;-77
2023/02/25 03:18:28;;;;;;;7.00;0.50;;;;;;;-146.25;100.00;52481.75;2079332;28;21855;-77
2023/02/25 03:19:34;;;;;;;6.90;0.47;;;;;;;-146.25;100.00;52475.66;2080116;28;20038;-77
2023/02/25 03:20:42;;;;;;;8.48;0.50;;;;;;;-146.25;100.00;52463.50;2080794;28;20038;-77
2023/02/25 03:21:56;;;;;;;7.15;0.40;;;;;;;-146.25;100.00;52518.25;2079111;28;20054;-77
2023/02/25 03:23:04;;;;;;;9.13;0.50;;;;;;;-146.25;100.00;52485.81;2059689;28;21687;-77
2023/02/25 03:24:14;;;;;;;8.07;0.50;;;;;;;-146.25;100.00;52471.59;2075525;28;33659;-77
2023/02/25 03:25:34;;;;;;;7.22;0.85;;;;;;;-146.25;100.00;52471.59;2079956;28;20046;-76
2023/02/25 03:26:37;;;;;;;6.93;0.30;;;;;;;-146.25;100.00;52453.34;2083501;28;20038;-76
2023/02/25 03:27:42;;;;;;;8.82;0.70;;;;;;;-146.25;100.00;52485.81;2087758;28;24469;-76
2023/02/25 03:28:46;;;;;;;5.80;0.80;;;;;;;-146.25;100.00;52469.56;2071952;28;20073;-77
2023/02/25 03:29:49;;;;;;;12.85;0.60;;;;;;;-146.25;100.00;52463.50;2056361;28;20074;-76
2023/02/25 03:30:59;;;;;;;8.48;0.50;;;;;;;-146.25;100.00;52471.59;2072028;28;31444;-77
2023/02/25 03:32:09;;;;;;;9.68;0.60;;;;;;;-146.25;100.00;52495.94;2088705;28;33632;-75
2023/02/25 03:33:47;;;;;;;9.48;0.65;;;;;;;-146.25;100.00;52469.56;2079476;28;20049;-76
2023/02/25 03:34:56;;;;;;;6.78;0.50;;;;;;;-146.25;100.00;52493.91;2076747;28;20157;-76
2023/02/25 03:36:02;;;;;;;7.00;0.57;;;;;;;-146.25;100.00;52493.91;2084272;28;33693;-76
2023/02/25 03:37:20;;;;;;;10.93;0.75;;;;;;;-146.25;100.00;52504.03;2079685;28;20053;-77
2023/02/25 03:38:27;;;;;;;12.82;1.33;;;;;;;-146.25;100.00;52477.69;2073690;28;33313;-76
2023/02/25 03:39:37;;;;;;;7.82;0.50;;;;;;;-146.25;100.00;52497.97;2073844;28;29775;-76
2023/02/25 03:40:41;;;;;;;7.88;0.60;;;;;;;-146.25;100.00;52473.63;2073620;28;20823;-76
2023/02/25 03:41:47;;;;;;;10.80;0.75;;;;;;;-146.25;100.00;52493.91;2071973;28;20181;-76
2023/02/25 03:43:01;;;;;;;8.93;0.68;;;;;;;-146.25;100.00;52461.47;2072786;28;27597;-76
2023/02/25 03:44:11;;;;;;;6.45;0.45;;;;;;;-146.25;100.00;52512.16;2079587;28;20929;-76
2023/02/25 03:45:15;;;;;;;9.55;0.60;;;;;;;-146.25;100.00;52497.97;2074870;28;20050;-76
2023/02/25 03:46:19;;;;;;;7.93;0.47;;;;;;;-146.25;100.00;52489.84;2079722;28;20046;-76
2023/02/25 03:47:24;;;;;;;8.25;0.57;;;;;;;-146.25;100.00;52475.66;2080663;28;21088;-76
2023/02/25 03:48:28;;;;;;;12.07;0.93;;;;;;;-146.25;100.00;52491.88;2071989;28;20050;-76
2023/02/25 03:49:53;;;;;;;10.00;0.40;;;;;;;-146.25;100.00;52510.13;2065224;28;20039;-77
2023/02/25 03:51:01;;;;;;;4.53;0.50;;;;;;;-146.25;100.00;52463.50;2075236;28;20037;-77
2023/02/25 03:52:13;;;;;;;13.65;0.68;;;;;;;-146.25;100.00;52467.56;2079670;28;20846;-76
2023/02/25 03:53:16;;;;;;;6.90;0.65;;;;;;;-146.25;100.00;52461.47;2079450;28;20053;-76
2023/02/25 03:54:26;;;;;;;9.20;0.52;;;;;;;-146.25;100.00;52506.06;2079605;28;20062;-77
2023/02/25 03:55:28;;;;;;;9.80;0.73;;;;;;;-146.25;100.00;52467.56;2079036;28;20148;-76
2023/02/25 03:56:40;;;;;;;10.20;0.73;;;;;;;-146.25;100.00;52510.13;2079869;28;20097;-77
2023/02/25 03:57:44;;;;;;;4.28;0.40;;;;;;;-146.25;100.00;52502.03;2080027;28;26869;-77
2023/02/25 03:58:46;;;;;;;6.13;0.57;;;;;;;-146.25;100.00;52481.75;2073484;28;20890;-77
2023/02/25 03:59:55;;;;;;;11.48;0.75;;;;;;;-146.25;100.00;52467.56;2079986;28;29564;-81
2023/02/25 04:01:01;;;;;;;7.10;0.47;;;;;;;-146.25;100.00;52445.25;2088485;28;21699;-76
2023/02/25 04:02:06;;;;;;;14.75;0.60;;;;;;;-146.25;100.00;52483.78;2087269;28;20183;-77
2023/02/25 04:03:08;;;;;;;17.00;0.63;;;;;;;-146.25;100.00;52455.38;2079819;28;20041;-77
2023/02/25 04:04:10;;;;;;;8.38;0.50;;;;;;;-146.25;100.00;52506.06;2080441;28;20124;-77
2023/02/25 04:05:14;;;;;;;9.15;0.50;;;;;;;-146.25;100.00;52453.34;2079732;28;21093;-77
2023/02/25 04:06:21;;;;;;;6.18;0.35;;;;;;;-146.25;100.00;52420.91;2080496;28;20048;-77
2023/02/25 04:07:24;;;;;;;8.50;0.75;;;;;;;-146.25;100.00;52481.75;2079742;28;20060;-77
2023/02/25 04:08:26;;;;;;;12.93;0.70;;;;;;;-146.25;100.00;52497.97;2080081;28;20903;-76
2023/02/25 04:09:28;;;;;;;10.05;0.60;;;;;;;-146.25;100.00;52508.09;2079775;28;20042;-77
2023/02/25 04:10:29;;;;;;;9.10;0.45;;;;;;;-146.25;100.00;52493.91;2071453;28;20050;-77
2023/02/25 04:11:35;;;;;;;7.68;0.88;;;;;;;-146.25;100.00;52457.41;2071552;28;20108;-77
2023/02/25 04:12:38;;;;;;;11.32;0.40;;;;;;;-146.25;100.00;52467.56;2080795;28;20049;-77
2023/02/25 04:13:40;;;;;;;7.40;0.50;;;;;;;-146.25;100.00;52475.66;2079241;28;20037;-77
2023/02/25 04:14:41;;;;;;;9.75;0.55;;;;;;;-146.25;98.98;52493.91;2071099;28;20046;-76
2023/02/25 04:15:44;;;;;;;8.20;0.73;;;;;;;-146.25;98.52;52475.66;2071311;28;20926;-77
2023/02/25 04:16:46;;;;;;;8.38;0.40;;;;;;;-146.25;98.32;52475.66;2079973;28;20827;-77
2023/02/25 04:17:48;;;;;;;6.38;0.50;;;;;;;-146.25;97.81;52477.69;2079488;28;20041;-77
2023/02/25 04:18:49;;;;;;;4.55;0.30;;;;;;;-146.25;97.39;52461.47;2071477;28;27128;-77
2023/02/25 04:19:52;;;;;;;4.30;0.32;;;;;;;-146.25;96.45;52479.72;2079810;28;20042;-77
2023/02/25 04:20:55;;;;;;;8.23;0.50;;;;;;;-146.25;96.10;52493.91;2079418;28;20088;-76
2023/02/25 04:21:59;;;;;;;8.95;0.60;;;;;;;-146.25;94.95;52497.97;2079116;28;34239;-77
2023/02/25 04:23:01;;;;;;;7.35;0.43;;;;;;;-146.25;95.22;52497.97;2080045;28;34290;-76
2023/02/25 04:24:06;;;;;;;7.00;0.40;;;;;;;-146.25;94.59;52461.47;2079246;28;36462;-77
2023/02/25 04:25:08;;;;;;;3.65;0.30;;;;;;;-146.25;94.06;52481.75;2079569;28;36372;-77
2023/02/25 04:26:12;;;;;;;8.60;0.60;;;;;;;-146.25;94.18;52455.38;2079820;28;36589;-77
2023/02/25 04:27:15;;;;;;;8.02;0.30;;;;;;;-146.25;93.75;52437.13;2080409;28;20042;-77
2023/02/25 04:28:17;;;;;;;6.03;0.40;;;;;;;-146.25;91.51;52465.53;2070976;28;34896;-77
2023/02/25 04:29:18;;;;;;;5.28;0.25;;;;;;;-146.25;91.29;52504.03;2070813;28;36678;-76
2023/02/25 04:30:20;;;;;;;3.95;0.40;;;;;;;-146.25;91.51;52485.81;2079880;28;35379;-77
2023/02/25 04:31:22;;;;;;;6.03;0.30;;;;;;;-146.25;91.25;52475.66;2079950;28;35550;-77
2023/02/25 04:32:26;;;;;;;5.95;0.77;;;;;;;-146.25;91.48;52477.69;2079469;28;34078;-77
2023/02/25 04:33:28;;;;;;;8.65;0.60;;;;;;;-146.25;91.03;52457.41;2079735;28;36293;-76
2023/02/25 04:34:29;;;;;;;9.15;0.50;;;;;;;-146.25;91.16;52491.88;2081012;28;20160;-77
2023/02/25 04:35:31;;;;;;;6.25;0.55;;;;;;;-146.25;91.59;52479.72;2079008;28;34729;-77
2023/02/25 04:36:34;;;;;;;3.38;0.35;;;;;;;-146.25;91.90;52471.59;2079815;28;36767;-77
2023/02/25 04:37:38;;;;;;;5.28;0.40;;;;;;;-146.25;91.84;52465.53;2079928;28;34292;-77
2023/02/25 04:38:41;;;;;;;8.02;0.35;;;;;;;-146.25;92.02;52483.78;2079369;28;36423;-76
2023/02/25 04:39:43;;;;;;;5.85;0.30;;;;;;;-146.25;92.46;52461.47;2080012;28;32809;-77
2023/02/25 04:40:44;;;;;;;6.10;0.45;;;;;;;-146.25;92.30;52455.38;2079426;28;35114;-76
2023/02/25 04:41:46;;;;;;;7.88;0.40;;;;;;;-146.25;92.68;52483.78;2079926;28;36505;-77
2023/02/25 04:42:50;;;;;;;5.70;0.30;;;;;;;-146.25;92.13;52475.66;2079573;28;33969;-77
2023/02/25 04:43:52;;;;;;;9.85;0.80;;;;;;;-146.25;92.58;52469.56;2079930;28;35115;-76
2023/02/25 04:44:55;;;;;;;3.22;0.30;;;;;;;-146.25;92.39;52493.91;2079622;28;36010;-76
2023/02/25 04:45:56;;;;;;;6.78;0.30;;;;;;;-146.25;92.85;52469.56;2079391;28;33656;-77
2023/02/25 04:47:01;;;;;;;5.65;0.30;;;;;;;-146.25;92.68;52453.34;2079883;28;20901;-76
2023/02/25 04:48:03;;;;;;;8.38;0.30;;;;;;;-146.25;92.87;52495.94;2080014;28;34057;-77
2023/02/25 04:49:06;;;;;;;5.78;0.57;;;;;;;-146.25;93.16;52465.53;2079124;28;34777;-76
2023/02/25 04:50:10;;;;;;;4.95;0.40;;;;;;;-146.25;93.18;52508.09;2080782;28;33895;-76
2023/02/25 04:51:12;;;;;;;6.38;0.57;;;;;;;-146.25;93.52;52453.34;2086901;28;29063;-76
2023/02/25 04:52:14;;;;;;;3.85;0.17;;;;;;;-146.25;92.49;52510.13;2079099;28;35719;-77
2023/02/25 04:53:16;;;;;;;9.25;0.30;;;;;;;-146.25;92.30;52487.81;2071076;28;33229;-77
2023/02/25 04:54:19;;;;;;;9.05;0.40;;;;;;;-146.25;92.65;52487.81;2071539;28;32360;-77
2023/02/25 04:55:21;;;;;;;5.38;0.40;;;;;;;-146.25;93.00;52469.56;2079673;28;33243;-77
2023/02/25 04:56:22;;;;;;;9.88;0.40;;;;;;;-146.25;92.75;52435.09;2080451;28;34593;-76
2023/02/25 04:57:25;;;;;;;5.07;0.20;;;;;;;-146.25;92.52;52524.31;2079842;28;20884;-76
2023/02/25 04:58:26;;;;;;;6.85;0.38;;;;;;;-146.25;92.79;52500.00;2079951;28;36656;-77
2023/02/25 04:59:28;;;;;;;6.10;0.30;;;;;;;-146.25;93.05;52469.56;2079686;28;33049;-77
2023/02/25 05:00:30;;;;;;;7.13;0.40;;;;;;;-146.25;92.68;52481.75;2080012;28;35486;-77
2023/02/25 05:01:32;;;;;;;8.73;0.30;;;;;;;-146.25;90.97;52493.91;2079856;28;34427;-77
2023/02/25 05:02:33;;;;;;;8.77;0.60;;;;;;;-146.25;89.97;52445.25;2082261;28;20939;-77
2023/02/25 05:03:35;;;;;;;6.05;0.50;;;;;;;-146.25;89.91;52493.91;2087568;28;37025;-77
2023/02/25 05:04:39;;;;;;;5.18;0.25;;;;;;;-146.25;89.12;52455.38;2088184;28;33492;-78